sensor_id;sensor_type;location;lat;lon;timestamp;P1;durP1;ratioP1;P2;durP2;ratioP2
10719;SDS011;5411;58.386;15.560;2022-07-23T00:00:56;12.47;;;4.97;;
10719;SDS011;5411;58.386;15.560;2022-07-23T00:03:24;10.00;;;4.10;;
10719;SDS011;5411;58.386;15.560;2022-07-23T00:05:54;7.80;;;4.43;;
10719;SDS011;5411;58.386;15.560;2022-07-23T00:08:24;10.53;;;4.80;;
10719;SDS011;5411;58.386;15.560;2022-07-23T00:10:52;11.73;;;5.17;;
10719;SDS011;5411;58.386;15.560;2022-07-23T00:13:20;10.33;;;4.87;;
10719;SDS011;5411;58.386;15.560;2022-07-23T00:15:50;9.47;;;4.90;;
10719;SDS011;5411;58.386;15.560;2022-07-23T00:18:18;8.17;;;4.40;;
10719;SDS011;5411;58.386;15.560;2022-07-23T00:20:47;9.87;;;4.17;;
10719;SDS011;5411;58.386;15.560;2022-07-23T00:23:22;9.73;;;4.67;;
10719;SDS011;5411;58.386;15.560;2022-07-23T00:25:51;13.77;;;5.03;;
10719;SDS011;5411;58.386;15.560;2022-07-23T00:28:24;11.60;;;4.90;;
10719;SDS011;5411;58.386;15.560;2022-07-23T00:30:52;8.73;;;4.17;;
10719;SDS011;5411;58.386;15.560;2022-07-23T00:33:21;9.07;;;3.97;;
10719;SDS011;5411;58.386;15.560;2022-07-23T00:35:49;7.67;;;3.60;;
10719;SDS011;5411;58.386;15.560;2022-07-23T00:38:17;12.03;;;4.70;;
10719;SDS011;5411;58.386;15.560;2022-07-23T00:40:46;8.93;;;3.87;;
10719;SDS011;5411;58.386;15.560;2022-07-23T00:43:14;9.97;;;4.43;;
10719;SDS011;5411;58.386;15.560;2022-07-23T00:45:43;10.43;;;4.23;;
10719;SDS011;5411;58.386;15.560;2022-07-23T00:48:11;11.93;;;4.10;;
10719;SDS011;5411;58.386;15.560;2022-07-23T00:50:40;7.40;;;4.40;;
10719;SDS011;5411;58.386;15.560;2022-07-23T00:53:16;11.13;;;4.63;;
10719;SDS011;5411;58.386;15.560;2022-07-23T00:55:48;8.30;;;3.93;;
10719;SDS011;5411;58.386;15.560;2022-07-23T00:58:16;16.93;;;5.00;;
10719;SDS011;5411;58.386;15.560;2022-07-23T01:00:46;10.63;;;4.03;;
10719;SDS011;5411;58.386;15.560;2022-07-23T01:03:14;9.00;;;4.67;;
10719;SDS011;5411;58.386;15.560;2022-07-23T01:05:42;12.43;;;3.97;;
10719;SDS011;5411;58.386;15.560;2022-07-23T01:08:10;9.00;;;4.17;;
10719;SDS011;5411;58.386;15.560;2022-07-23T01:10:39;9.27;;;4.60;;
10719;SDS011;5411;58.386;15.560;2022-07-23T01:13:09;11.50;;;4.60;;
10719;SDS011;5411;58.386;15.560;2022-07-23T01:15:38;11.00;;;4.63;;
10719;SDS011;5411;58.386;15.560;2022-07-23T01:18:06;12.10;;;4.47;;
10719;SDS011;5411;58.386;15.560;2022-07-23T01:20:35;8.77;;;4.70;;
10719;SDS011;5411;58.386;15.560;2022-07-23T01:23:04;11.30;;;4.77;;
10719;SDS011;5411;58.386;15.560;2022-07-23T01:25:33;10.53;;;4.27;;
10719;SDS011;5411;58.386;15.560;2022-07-23T01:28:01;9.50;;;4.50;;
10719;SDS011;5411;58.386;15.560;2022-07-23T01:30:31;9.80;;;4.47;;
10719;SDS011;5411;58.386;15.560;2022-07-23T01:32:59;9.87;;;4.50;;
10719;SDS011;5411;58.386;15.560;2022-07-23T01:35:27;8.90;;;4.33;;
10719;SDS011;5411;58.386;15.560;2022-07-23T01:37:58;9.60;;;4.10;;
10719;SDS011;5411;58.386;15.560;2022-07-23T01:40:28;8.50;;;5.03;;
10719;SDS011;5411;58.386;15.560;2022-07-23T01:42:57;8.80;;;4.17;;
10719;SDS011;5411;58.386;15.560;2022-07-23T01:45:26;10.33;;;4.67;;
10719;SDS011;5411;58.386;15.560;2022-07-23T01:47:54;10.93;;;4.87;;
10719;SDS011;5411;58.386;15.560;2022-07-23T01:50:22;7.77;;;4.40;;
10719;SDS011;5411;58.386;15.560;2022-07-23T01:52:50;10.57;;;4.20;;
10719;SDS011;5411;58.386;15.560;2022-07-23T01:55:19;8.10;;;4.37;;
10719;SDS011;5411;58.386;15.560;2022-07-23T01:58:09;9.97;;;4.43;;
10719;SDS011;5411;58.386;15.560;2022-07-23T02:00:43;8.00;;;4.20;;
10719;SDS011;5411;58.386;15.560;2022-07-23T02:03:11;7.53;;;4.10;;
10719;SDS011;5411;58.386;15.560;2022-07-23T02:05:39;9.57;;;3.90;;
10719;SDS011;5411;58.386;15.560;2022-07-23T02:08:07;9.83;;;3.97;;
10719;SDS011;5411;58.386;15.560;2022-07-23T02:10:39;6.90;;;3.17;;
10719;SDS011;5411;58.386;15.560;2022-07-23T02:13:08;6.33;;;3.20;;
10719;SDS011;5411;58.386;15.560;2022-07-23T02:15:51;4.60;;;3.37;;
10719;SDS011;5411;58.386;15.560;2022-07-23T02:18:22;4.70;;;2.90;;
10719;SDS011;5411;58.386;15.560;2022-07-23T02:20:50;4.37;;;3.33;;
10719;SDS011;5411;58.386;15.560;2022-07-23T02:23:18;4.50;;;3.70;;
10719;SDS011;5411;58.386;15.560;2022-07-23T02:25:46;5.37;;;3.43;;
10719;SDS011;5411;58.386;15.560;2022-07-23T02:28:17;4.43;;;3.30;;
10719;SDS011;5411;58.386;15.560;2022-07-23T02:30:45;7.17;;;3.37;;
10719;SDS011;5411;58.386;15.560;2022-07-23T02:33:16;4.97;;;3.57;;
10719;SDS011;5411;58.386;15.560;2022-07-23T02:35:44;3.40;;;3.10;;
10719;SDS011;5411;58.386;15.560;2022-07-23T02:38:12;4.57;;;3.17;;
10719;SDS011;5411;58.386;15.560;2022-07-23T02:40:40;3.73;;;2.97;;
10719;SDS011;5411;58.386;15.560;2022-07-23T02:43:10;4.77;;;3.10;;
10719;SDS011;5411;58.386;15.560;2022-07-23T02:45:39;6.07;;;3.03;;
10719;SDS011;5411;58.386;15.560;2022-07-23T02:48:08;4.63;;;3.17;;
10719;SDS011;5411;58.386;15.560;2022-07-23T02:50:38;3.80;;;3.23;;
10719;SDS011;5411;58.386;15.560;2022-07-23T02:53:07;6.47;;;3.07;;
10719;SDS011;5411;58.386;15.560;2022-07-23T02:55:36;3.73;;;3.13;;
10719;SDS011;5411;58.386;15.560;2022-07-23T02:58:05;2.97;;;2.60;;
10719;SDS011;5411;58.386;15.560;2022-07-23T03:00:33;5.13;;;3.23;;
10719;SDS011;5411;58.386;15.560;2022-07-23T03:03:03;3.00;;;2.37;;
10719;SDS011;5411;58.386;15.560;2022-07-23T03:05:31;5.80;;;2.50;;
10719;SDS011;5411;58.386;15.560;2022-07-23T03:07:59;4.50;;;2.33;;
10719;SDS011;5411;58.386;15.560;2022-07-23T03:10:27;4.27;;;2.70;;
10719;SDS011;5411;58.386;15.560;2022-07-23T03:12:55;4.17;;;2.10;;
10719;SDS011;5411;58.386;15.560;2022-07-23T03:15:23;2.70;;;2.50;;
10719;SDS011;5411;58.386;15.560;2022-07-23T03:17:52;3.57;;;2.30;;
10719;SDS011;5411;58.386;15.560;2022-07-23T03:20:21;3.00;;;2.70;;
10719;SDS011;5411;58.386;15.560;2022-07-23T03:22:49;5.20;;;2.70;;
10719;SDS011;5411;58.386;15.560;2022-07-23T03:25:17;2.80;;;2.30;;
10719;SDS011;5411;58.386;15.560;2022-07-23T03:27:45;4.00;;;2.47;;
10719;SDS011;5411;58.386;15.560;2022-07-23T03:30:13;2.30;;;2.10;;
10719;SDS011;5411;58.386;15.560;2022-07-23T03:32:42;2.13;;;1.90;;
10719;SDS011;5411;58.386;15.560;2022-07-23T03:35:10;2.30;;;2.10;;
10719;SDS011;5411;58.386;15.560;2022-07-23T03:37:44;2.90;;;2.20;;
10719;SDS011;5411;58.386;15.560;2022-07-23T03:40:12;3.07;;;2.20;;
10719;SDS011;5411;58.386;15.560;2022-07-23T03:42:41;3.70;;;2.40;;
10719;SDS011;5411;58.386;15.560;2022-07-23T03:45:09;2.33;;;2.13;;
10719;SDS011;5411;58.386;15.560;2022-07-23T03:47:38;2.00;;;1.90;;
10719;SDS011;5411;58.386;15.560;2022-07-23T03:50:07;2.33;;;2.13;;
10719;SDS011;5411;58.386;15.560;2022-07-23T03:52:36;2.87;;;2.00;;
10719;SDS011;5411;58.386;15.560;2022-07-23T03:55:06;2.63;;;2.17;;
10719;SDS011;5411;58.386;15.560;2022-07-23T03:57:35;3.97;;;2.00;;
10719;SDS011;5411;58.386;15.560;2022-07-23T04:00:04;2.47;;;1.90;;
10719;SDS011;5411;58.386;15.560;2022-07-23T04:02:35;2.70;;;2.13;;
10719;SDS011;5411;58.386;15.560;2022-07-23T04:05:04;2.87;;;1.73;;
10719;SDS011;5411;58.386;15.560;2022-07-23T04:07:32;4.57;;;2.07;;
10719;SDS011;5411;58.386;15.560;2022-07-23T04:10:03;1.80;;;1.60;;
10719;SDS011;5411;58.386;15.560;2022-07-23T04:12:34;4.07;;;2.00;;
10719;SDS011;5411;58.386;15.560;2022-07-23T04:15:06;2.43;;;1.57;;
10719;SDS011;5411;58.386;15.560;2022-07-23T04:17:35;1.90;;;1.80;;
10719;SDS011;5411;58.386;15.560;2022-07-23T04:20:04;3.27;;;1.90;;
10719;SDS011;5411;58.386;15.560;2022-07-23T04:22:33;2.43;;;1.90;;
10719;SDS011;5411;58.386;15.560;2022-07-23T04:25:01;2.50;;;1.90;;
10719;SDS011;5411;58.386;15.560;2022-07-23T04:27:35;5.20;;;1.90;;
10719;SDS011;5411;58.386;15.560;2022-07-23T04:30:04;2.93;;;1.87;;
10719;SDS011;5411;58.386;15.560;2022-07-23T04:32:33;2.43;;;1.80;;
10719;SDS011;5411;58.386;15.560;2022-07-23T04:35:01;3.57;;;2.57;;
10719;SDS011;5411;58.386;15.560;2022-07-23T04:37:33;2.67;;;2.03;;
10719;SDS011;5411;58.386;15.560;2022-07-23T04:40:04;1.63;;;1.53;;
10719;SDS011;5411;58.386;15.560;2022-07-23T04:42:33;14.47;;;2.10;;
10719;SDS011;5411;58.386;15.560;2022-07-23T04:45:03;3.73;;;1.80;;
10719;SDS011;5411;58.386;15.560;2022-07-23T04:47:48;1.90;;;1.67;;
10719;SDS011;5411;58.386;15.560;2022-07-23T04:50:17;1.97;;;1.70;;
10719;SDS011;5411;58.386;15.560;2022-07-23T04:52:48;2.43;;;1.97;;
10719;SDS011;5411;58.386;15.560;2022-07-23T04:55:16;3.13;;;1.80;;
10719;SDS011;5411;58.386;15.560;2022-07-23T04:57:50;2.97;;;2.10;;
10719;SDS011;5411;58.386;15.560;2022-07-23T05:00:20;1.80;;;1.70;;
10719;SDS011;5411;58.386;15.560;2022-07-23T05:02:49;2.30;;;1.80;;
10719;SDS011;5411;58.386;15.560;2022-07-23T05:05:17;3.43;;;1.93;;
10719;SDS011;5411;58.386;15.560;2022-07-23T05:07:49;3.03;;;2.23;;
10719;SDS011;5411;58.386;15.560;2022-07-23T05:10:17;2.03;;;1.80;;
10719;SDS011;5411;58.386;15.560;2022-07-23T05:12:46;2.00;;;1.80;;
10719;SDS011;5411;58.386;15.560;2022-07-23T05:15:14;1.70;;;1.60;;
10719;SDS011;5411;58.386;15.560;2022-07-23T05:17:48;3.47;;;2.10;;
10719;SDS011;5411;58.386;15.560;2022-07-23T05:20:16;2.60;;;1.87;;
10719;SDS011;5411;58.386;15.560;2022-07-23T05:22:44;2.80;;;1.83;;
10719;SDS011;5411;58.386;15.560;2022-07-23T05:25:13;1.83;;;1.60;;
10719;SDS011;5411;58.386;15.560;2022-07-23T05:27:41;2.43;;;2.23;;
10719;SDS011;5411;58.386;15.560;2022-07-23T05:30:12;2.27;;;1.73;;
10719;SDS011;5411;58.386;15.560;2022-07-23T05:32:40;3.60;;;1.87;;
10719;SDS011;5411;58.386;15.560;2022-07-23T05:35:10;2.97;;;2.00;;
10719;SDS011;5411;58.386;15.560;2022-07-23T05:37:41;2.47;;;2.27;;
10719;SDS011;5411;58.386;15.560;2022-07-23T05:40:11;2.43;;;1.80;;
10719;SDS011;5411;58.386;15.560;2022-07-23T05:42:41;3.67;;;2.10;;
10719;SDS011;5411;58.386;15.560;2022-07-23T05:45:09;2.13;;;1.90;;
10719;SDS011;5411;58.386;15.560;2022-07-23T05:47:42;3.83;;;2.43;;
10719;SDS011;5411;58.386;15.560;2022-07-23T05:50:13;2.03;;;1.83;;
10719;SDS011;5411;58.386;15.560;2022-07-23T05:52:42;2.40;;;2.00;;
10719;SDS011;5411;58.386;15.560;2022-07-23T05:55:10;3.13;;;2.20;;
10719;SDS011;5411;58.386;15.560;2022-07-23T05:57:40;2.40;;;2.20;;
10719;SDS011;5411;58.386;15.560;2022-07-23T06:00:10;2.17;;;1.93;;
10719;SDS011;5411;58.386;15.560;2022-07-23T06:02:39;2.53;;;2.33;;
10719;SDS011;5411;58.386;15.560;2022-07-23T06:05:08;3.43;;;2.00;;
10719;SDS011;5411;58.386;15.560;2022-07-23T06:07:51;2.60;;;2.00;;
10719;SDS011;5411;58.386;15.560;2022-07-23T06:10:19;2.50;;;2.13;;
10719;SDS011;5411;58.386;15.560;2022-07-23T06:12:47;2.50;;;2.30;;
10719;SDS011;5411;58.386;15.560;2022-07-23T06:15:24;3.10;;;2.13;;
10719;SDS011;5411;58.386;15.560;2022-07-23T06:17:52;2.33;;;2.00;;
10719;SDS011;5411;58.386;15.560;2022-07-23T06:20:20;2.27;;;2.07;;
10719;SDS011;5411;58.386;15.560;2022-07-23T06:22:53;2.83;;;2.63;;
10719;SDS011;5411;58.386;15.560;2022-07-23T06:25:21;2.33;;;2.00;;
10719;SDS011;5411;58.386;15.560;2022-07-23T06:27:50;2.40;;;2.20;;
10719;SDS011;5411;58.386;15.560;2022-07-23T06:30:18;2.10;;;1.90;;
10719;SDS011;5411;58.386;15.560;2022-07-23T06:32:47;2.00;;;1.80;;
10719;SDS011;5411;58.386;15.560;2022-07-23T06:35:15;2.30;;;2.10;;
10719;SDS011;5411;58.386;15.560;2022-07-23T06:37:50;2.90;;;2.70;;
10719;SDS011;5411;58.386;15.560;2022-07-23T06:40:20;1.90;;;1.70;;
10719;SDS011;5411;58.386;15.560;2022-07-23T06:42:48;2.73;;;2.10;;
10719;SDS011;5411;58.386;15.560;2022-07-23T06:45:18;2.33;;;2.00;;
10719;SDS011;5411;58.386;15.560;2022-07-23T06:47:47;2.57;;;2.20;;
10719;SDS011;5411;58.386;15.560;2022-07-23T06:50:15;2.30;;;2.10;;
10719;SDS011;5411;58.386;15.560;2022-07-23T06:52:44;1.93;;;1.83;;
10719;SDS011;5411;58.386;15.560;2022-07-23T06:55:12;2.53;;;1.90;;
10719;SDS011;5411;58.386;15.560;2022-07-23T06:57:42;1.63;;;1.53;;
10719;SDS011;5411;58.386;15.560;2022-07-23T07:00:10;2.03;;;1.83;;
10719;SDS011;5411;58.386;15.560;2022-07-23T07:02:39;2.77;;;1.70;;
10719;SDS011;5411;58.386;15.560;2022-07-23T07:05:07;1.70;;;1.60;;
10719;SDS011;5411;58.386;15.560;2022-07-23T07:07:35;1.50;;;1.40;;
10719;SDS011;5411;58.386;15.560;2022-07-23T07:10:04;1.90;;;1.80;;
10719;SDS011;5411;58.386;15.560;2022-07-23T07:12:40;2.60;;;1.70;;
10719;SDS011;5411;58.386;15.560;2022-07-23T07:15:10;1.60;;;1.50;;
10719;SDS011;5411;58.386;15.560;2022-07-23T07:17:39;1.57;;;1.47;;
10719;SDS011;5411;58.386;15.560;2022-07-23T07:20:09;1.40;;;1.30;;
10719;SDS011;5411;58.386;15.560;2022-07-23T07:22:37;2.17;;;2.07;;
10719;SDS011;5411;58.386;15.560;2022-07-23T07:25:06;1.60;;;1.50;;
10719;SDS011;5411;58.386;15.560;2022-07-23T07:27:35;1.73;;;1.60;;
10719;SDS011;5411;58.386;15.560;2022-07-23T07:30:06;1.60;;;1.50;;
10719;SDS011;5411;58.386;15.560;2022-07-23T07:32:35;1.50;;;1.40;;
10719;SDS011;5411;58.386;15.560;2022-07-23T07:35:21;2.67;;;1.40;;
10719;SDS011;5411;58.386;15.560;2022-07-23T07:37:49;1.10;;;1.10;;
10719;SDS011;5411;58.386;15.560;2022-07-23T07:40:17;2.40;;;2.20;;
10719;SDS011;5411;58.386;15.560;2022-07-23T07:42:46;1.57;;;1.47;;
10719;SDS011;5411;58.386;15.560;2022-07-23T07:45:15;1.63;;;1.53;;
10719;SDS011;5411;58.386;15.560;2022-07-23T07:47:44;1.50;;;1.40;;
10719;SDS011;5411;58.386;15.560;2022-07-23T07:50:12;1.73;;;1.63;;
10719;SDS011;5411;58.386;15.560;2022-07-23T07:52:40;1.63;;;1.53;;
10719;SDS011;5411;58.386;15.560;2022-07-23T07:55:09;5.70;;;2.00;;
10719;SDS011;5411;58.386;15.560;2022-07-23T07:57:38;1.53;;;1.43;;
10719;SDS011;5411;58.386;15.560;2022-07-23T08:00:13;2.37;;;1.67;;
10719;SDS011;5411;58.386;15.560;2022-07-23T08:02:43;1.53;;;1.27;;
10719;SDS011;5411;58.386;15.560;2022-07-23T08:05:13;2.60;;;1.70;;
10719;SDS011;5411;58.386;15.560;2022-07-23T08:07:42;1.40;;;1.30;;
10719;SDS011;5411;58.386;15.560;2022-07-23T08:10:13;1.73;;;1.63;;
10719;SDS011;5411;58.386;15.560;2022-07-23T08:12:41;1.83;;;1.47;;
10719;SDS011;5411;58.386;15.560;2022-07-23T08:15:11;1.90;;;1.63;;
10719;SDS011;5411;58.386;15.560;2022-07-23T08:17:40;1.60;;;1.47;;
10719;SDS011;5411;58.386;15.560;2022-07-23T08:20:12;2.10;;;1.90;;
10719;SDS011;5411;58.386;15.560;2022-07-23T08:22:43;1.60;;;1.50;;
10719;SDS011;5411;58.386;15.560;2022-07-23T08:25:12;1.93;;;1.83;;
10719;SDS011;5411;58.386;15.560;2022-07-23T08:27:41;1.70;;;1.50;;
10719;SDS011;5411;58.386;15.560;2022-07-23T08:30:09;1.80;;;1.70;;
10719;SDS011;5411;58.386;15.560;2022-07-23T08:32:52;1.60;;;1.50;;
10719;SDS011;5411;58.386;15.560;2022-07-23T08:35:27;1.60;;;1.50;;
10719;SDS011;5411;58.386;15.560;2022-07-23T08:37:57;1.90;;;1.80;;
10719;SDS011;5411;58.386;15.560;2022-07-23T08:40:28;2.87;;;1.90;;
10719;SDS011;5411;58.386;15.560;2022-07-23T08:43:19;2.60;;;1.80;;
10719;SDS011;5411;58.386;15.560;2022-07-23T08:45:49;1.90;;;1.70;;
10719;SDS011;5411;58.386;15.560;2022-07-23T08:48:21;1.90;;;1.80;;
10719;SDS011;5411;58.386;15.560;2022-07-23T08:50:54;2.00;;;1.30;;
10719;SDS011;5411;58.386;15.560;2022-07-23T08:53:24;1.67;;;1.57;;
10719;SDS011;5411;58.386;15.560;2022-07-23T08:55:55;1.73;;;1.63;;
10719;SDS011;5411;58.386;15.560;2022-07-23T08:58:25;2.20;;;2.10;;
10719;SDS011;5411;58.386;15.560;2022-07-23T09:00:54;2.13;;;1.67;;
10719;SDS011;5411;58.386;15.560;2022-07-23T09:03:25;1.80;;;1.70;;
10719;SDS011;5411;58.386;15.560;2022-07-23T09:05:55;1.83;;;1.73;;
10719;SDS011;5411;58.386;15.560;2022-07-23T09:08:24;1.97;;;1.83;;
10719;SDS011;5411;58.386;15.560;2022-07-23T09:11:02;1.97;;;1.77;;
10719;SDS011;5411;58.386;15.560;2022-07-23T09:13:32;1.53;;;1.43;;
10719;SDS011;5411;58.386;15.560;2022-07-23T09:16:03;1.70;;;1.60;;
10719;SDS011;5411;58.386;15.560;2022-07-23T09:18:37;2.03;;;1.70;;
10719;SDS011;5411;58.386;15.560;2022-07-23T09:21:15;4.63;;;1.80;;
10719;SDS011;5411;58.386;15.560;2022-07-23T09:23:45;2.90;;;1.80;;
10719;SDS011;5411;58.386;15.560;2022-07-23T09:26:23;2.00;;;1.90;;
10719;SDS011;5411;58.386;15.560;2022-07-23T09:31:45;2.67;;;1.80;;
10719;SDS011;5411;58.386;15.560;2022-07-23T09:34:20;2.17;;;2.07;;
10719;SDS011;5411;58.386;15.560;2022-07-23T09:36:50;2.00;;;1.80;;
10719;SDS011;5411;58.386;15.560;2022-07-23T09:39:28;1.97;;;1.87;;
10719;SDS011;5411;58.386;15.560;2022-07-23T09:41:57;1.97;;;1.77;;
10719;SDS011;5411;58.386;15.560;2022-07-23T09:44:40;1.63;;;1.53;;
10719;SDS011;5411;58.386;15.560;2022-07-23T09:47:09;2.03;;;1.93;;
10719;SDS011;5411;58.386;15.560;2022-07-23T09:49:39;1.93;;;1.47;;
10719;SDS011;5411;58.386;15.560;2022-07-23T09:52:10;1.77;;;1.67;;
10719;SDS011;5411;58.386;15.560;2022-07-23T09:54:39;1.57;;;1.47;;
10719;SDS011;5411;58.386;15.560;2022-07-23T09:57:08;2.00;;;1.70;;
10719;SDS011;5411;58.386;15.560;2022-07-23T09:59:39;1.40;;;1.30;;
10719;SDS011;5411;58.386;15.560;2022-07-23T10:02:09;2.17;;;1.90;;
10719;SDS011;5411;58.386;15.560;2022-07-23T10:04:42;1.53;;;1.43;;
10719;SDS011;5411;58.386;15.560;2022-07-23T10:07:11;1.83;;;1.73;;
10719;SDS011;5411;58.386;15.560;2022-07-23T10:09:43;1.67;;;1.57;;
10719;SDS011;5411;58.386;15.560;2022-07-23T10:12:20;1.60;;;1.50;;
10719;SDS011;5411;58.386;15.560;2022-07-23T10:15:10;1.80;;;1.70;;
10719;SDS011;5411;58.386;15.560;2022-07-23T10:17:39;1.57;;;1.40;;
10719;SDS011;5411;58.386;15.560;2022-07-23T10:20:09;2.07;;;1.97;;
10719;SDS011;5411;58.386;15.560;2022-07-23T10:22:38;1.40;;;1.30;;
10719;SDS011;5411;58.386;15.560;2022-07-23T10:25:11;2.50;;;1.60;;
10719;SDS011;5411;58.386;15.560;2022-07-23T10:31:05;1.87;;;1.77;;
10719;SDS011;5411;58.386;15.560;2022-07-23T10:34:07;1.60;;;1.50;;
10719;SDS011;5411;58.386;15.560;2022-07-23T10:36:44;1.70;;;1.60;;
10719;SDS011;5411;58.386;15.560;2022-07-23T10:39:19;2.07;;;1.97;;
10719;SDS011;5411;58.386;15.560;2022-07-23T10:41:52;1.97;;;1.87;;
10719;SDS011;5411;58.386;15.560;2022-07-23T10:44:38;1.80;;;1.70;;
10719;SDS011;5411;58.386;15.560;2022-07-23T10:47:09;1.93;;;1.83;;
10719;SDS011;5411;58.386;15.560;2022-07-23T10:49:47;2.20;;;2.00;;
10719;SDS011;5411;58.386;15.560;2022-07-23T10:52:18;2.23;;;2.13;;
10719;SDS011;5411;58.386;15.560;2022-07-23T10:54:52;2.27;;;2.07;;
10719;SDS011;5411;58.386;15.560;2022-07-23T10:57:23;2.40;;;1.70;;
10719;SDS011;5411;58.386;15.560;2022-07-23T11:02:57;1.87;;;1.70;;
10719;SDS011;5411;58.386;15.560;2022-07-23T11:05:27;1.53;;;1.43;;
10719;SDS011;5411;58.386;15.560;2022-07-23T11:10:50;2.10;;;1.60;;
10719;SDS011;5411;58.386;15.560;2022-07-23T11:13:28;2.27;;;1.70;;
10719;SDS011;5411;58.386;15.560;2022-07-23T11:16:08;2.50;;;1.93;;
10719;SDS011;5411;58.386;15.560;2022-07-23T11:18:54;2.03;;;1.80;;
10719;SDS011;5411;58.386;15.560;2022-07-23T11:24:27;2.43;;;2.23;;
10719;SDS011;5411;58.386;15.560;2022-07-23T11:26:59;1.87;;;1.50;;
10719;SDS011;5411;58.386;15.560;2022-07-23T11:32:28;3.20;;;1.80;;
10719;SDS011;5411;58.386;15.560;2022-07-23T11:35:22;2.30;;;2.00;;
10719;SDS011;5411;58.386;15.560;2022-07-23T11:37:54;1.80;;;1.70;;
10719;SDS011;5411;58.386;15.560;2022-07-23T11:40:33;1.93;;;1.83;;
10719;SDS011;5411;58.386;15.560;2022-07-23T11:43:03;3.07;;;2.00;;
10719;SDS011;5411;58.386;15.560;2022-07-23T11:45:33;1.77;;;1.67;;
10719;SDS011;5411;58.386;15.560;2022-07-23T11:48:15;2.23;;;2.07;;
10719;SDS011;5411;58.386;15.560;2022-07-23T11:50:44;2.30;;;1.73;;
10719;SDS011;5411;58.386;15.560;2022-07-23T11:53:13;2.40;;;2.20;;
10719;SDS011;5411;58.386;15.560;2022-07-23T11:55:44;1.60;;;1.50;;
10719;SDS011;5411;58.386;15.560;2022-07-23T11:58:12;1.43;;;1.33;;
10719;SDS011;5411;58.386;15.560;2022-07-23T12:00:40;1.80;;;1.70;;
10719;SDS011;5411;58.386;15.560;2022-07-23T12:03:09;2.40;;;2.20;;
10719;SDS011;5411;58.386;15.560;2022-07-23T12:05:38;1.77;;;1.67;;
10719;SDS011;5411;58.386;15.560;2022-07-23T12:08:07;2.30;;;2.00;;
10719;SDS011;5411;58.386;15.560;2022-07-23T12:10:39;2.03;;;1.90;;
10719;SDS011;5411;58.386;15.560;2022-07-23T12:13:11;2.63;;;2.13;;
10719;SDS011;5411;58.386;15.560;2022-07-23T12:15:42;1.83;;;1.63;;
10719;SDS011;5411;58.386;15.560;2022-07-23T12:18:12;2.20;;;2.00;;
10719;SDS011;5411;58.386;15.560;2022-07-23T12:20:43;2.13;;;2.03;;
10719;SDS011;5411;58.386;15.560;2022-07-23T12:23:13;2.20;;;2.00;;
10719;SDS011;5411;58.386;15.560;2022-07-23T12:25:46;2.83;;;2.03;;
10719;SDS011;5411;58.386;15.560;2022-07-23T12:28:18;2.67;;;2.10;;
10719;SDS011;5411;58.386;15.560;2022-07-23T12:30:51;2.10;;;2.00;;
10719;SDS011;5411;58.386;15.560;2022-07-23T12:33:30;2.87;;;2.20;;
10719;SDS011;5411;58.386;15.560;2022-07-23T12:36:02;2.37;;;2.20;;
10719;SDS011;5411;58.386;15.560;2022-07-23T12:38:37;2.50;;;2.30;;
10719;SDS011;5411;58.386;15.560;2022-07-23T12:41:07;3.13;;;2.83;;
10719;SDS011;5411;58.386;15.560;2022-07-23T12:43:40;2.00;;;1.90;;
10719;SDS011;5411;58.386;15.560;2022-07-23T12:46:10;2.03;;;1.93;;
10719;SDS011;5411;58.386;15.560;2022-07-23T12:48:50;2.20;;;2.10;;
10719;SDS011;5411;58.386;15.560;2022-07-23T12:51:21;2.57;;;2.37;;
10719;SDS011;5411;58.386;15.560;2022-07-23T12:54:10;2.37;;;2.17;;
10719;SDS011;5411;58.386;15.560;2022-07-23T12:56:44;2.10;;;2.00;;
10719;SDS011;5411;58.386;15.560;2022-07-23T12:59:16;2.67;;;2.27;;
10719;SDS011;5411;58.386;15.560;2022-07-23T13:01:45;2.40;;;2.20;;
10719;SDS011;5411;58.386;15.560;2022-07-23T13:04:30;2.07;;;1.87;;
10719;SDS011;5411;58.386;15.560;2022-07-23T13:07:00;2.47;;;2.17;;
10719;SDS011;5411;58.386;15.560;2022-07-23T13:09:32;2.03;;;1.93;;
10719;SDS011;5411;58.386;15.560;2022-07-23T13:12:10;2.20;;;2.10;;
10719;SDS011;5411;58.386;15.560;2022-07-23T13:14:39;2.90;;;2.33;;
10719;SDS011;5411;58.386;15.560;2022-07-23T13:17:08;2.10;;;2.00;;
10719;SDS011;5411;58.386;15.560;2022-07-23T13:19:39;2.73;;;2.23;;
10719;SDS011;5411;58.386;15.560;2022-07-23T13:22:16;2.50;;;2.30;;
10719;SDS011;5411;58.386;15.560;2022-07-23T13:24:44;3.80;;;1.93;;
10719;SDS011;5411;58.386;15.560;2022-07-23T13:27:13;2.40;;;2.20;;
10719;SDS011;5411;58.386;15.560;2022-07-23T13:29:46;2.23;;;2.13;;
10719;SDS011;5411;58.386;15.560;2022-07-23T13:32:15;2.93;;;2.33;;
10719;SDS011;5411;58.386;15.560;2022-07-23T13:34:45;2.23;;;2.13;;
10719;SDS011;5411;58.386;15.560;2022-07-23T13:37:15;2.30;;;2.10;;
10719;SDS011;5411;58.386;15.560;2022-07-23T13:39:45;2.53;;;2.30;;
10719;SDS011;5411;58.386;15.560;2022-07-23T13:42:14;2.67;;;2.00;;
10719;SDS011;5411;58.386;15.560;2022-07-23T13:44:42;3.00;;;2.07;;
10719;SDS011;5411;58.386;15.560;2022-07-23T13:47:11;4.63;;;2.40;;
10719;SDS011;5411;58.386;15.560;2022-07-23T13:49:44;2.03;;;1.93;;
10719;SDS011;5411;58.386;15.560;2022-07-23T13:52:14;2.97;;;2.20;;
10719;SDS011;5411;58.386;15.560;2022-07-23T13:54:42;2.00;;;1.90;;
10719;SDS011;5411;58.386;15.560;2022-07-23T13:57:10;2.27;;;2.07;;
10719;SDS011;5411;58.386;15.560;2022-07-23T13:59:39;1.83;;;1.73;;
10719;SDS011;5411;58.386;15.560;2022-07-23T14:02:09;1.80;;;1.70;;
10719;SDS011;5411;58.386;15.560;2022-07-23T14:04:49;2.07;;;1.67;;
10719;SDS011;5411;58.386;15.560;2022-07-23T14:07:18;2.07;;;1.60;;
10719;SDS011;5411;58.386;15.560;2022-07-23T14:09:49;1.80;;;1.70;;
10719;SDS011;5411;58.386;15.560;2022-07-23T14:12:17;1.80;;;1.70;;
10719;SDS011;5411;58.386;15.560;2022-07-23T14:14:49;1.70;;;1.60;;
10719;SDS011;5411;58.386;15.560;2022-07-23T14:17:18;1.60;;;1.50;;
10719;SDS011;5411;58.386;15.560;2022-07-23T14:19:46;2.30;;;1.47;;
10719;SDS011;5411;58.386;15.560;2022-07-23T14:22:16;1.97;;;1.87;;
10719;SDS011;5411;58.386;15.560;2022-07-23T14:24:46;1.87;;;1.70;;
10719;SDS011;5411;58.386;15.560;2022-07-23T14:27:16;2.60;;;2.10;;
10719;SDS011;5411;58.386;15.560;2022-07-23T14:29:46;1.60;;;1.50;;
10719;SDS011;5411;58.386;15.560;2022-07-23T14:32:14;2.30;;;2.10;;
10719;SDS011;5411;58.386;15.560;2022-07-23T14:34:42;2.77;;;1.80;;
10719;SDS011;5411;58.386;15.560;2022-07-23T14:37:16;1.60;;;1.50;;
10719;SDS011;5411;58.386;15.560;2022-07-23T14:39:47;2.03;;;1.90;;
10719;SDS011;5411;58.386;15.560;2022-07-23T14:42:15;2.00;;;1.90;;
10719;SDS011;5411;58.386;15.560;2022-07-23T14:44:44;1.93;;;1.60;;
10719;SDS011;5411;58.386;15.560;2022-07-23T14:47:12;2.70;;;2.33;;
10719;SDS011;5411;58.386;15.560;2022-07-23T14:49:46;2.57;;;2.10;;
10719;SDS011;5411;58.386;15.560;2022-07-23T14:52:16;2.30;;;2.10;;
10719;SDS011;5411;58.386;15.560;2022-07-23T14:54:45;2.10;;;2.00;;
10719;SDS011;5411;58.386;15.560;2022-07-23T14:57:15;2.40;;;2.20;;
10719;SDS011;5411;58.386;15.560;2022-07-23T14:59:50;3.60;;;2.13;;
10719;SDS011;5411;58.386;15.560;2022-07-23T15:02:20;2.00;;;1.90;;
10719;SDS011;5411;58.386;15.560;2022-07-23T15:04:49;2.07;;;1.97;;
10719;SDS011;5411;58.386;15.560;2022-07-23T15:07:18;2.10;;;2.00;;
10719;SDS011;5411;58.386;15.560;2022-07-23T15:09:46;2.27;;;2.17;;
10719;SDS011;5411;58.386;15.560;2022-07-23T15:12:15;2.20;;;2.07;;
10719;SDS011;5411;58.386;15.560;2022-07-23T15:14:43;1.90;;;1.80;;
10719;SDS011;5411;58.386;15.560;2022-07-23T15:17:12;2.40;;;2.20;;
10719;SDS011;5411;58.386;15.560;2022-07-23T15:19:42;3.67;;;2.20;;
10719;SDS011;5411;58.386;15.560;2022-07-23T15:22:10;2.40;;;2.30;;
10719;SDS011;5411;58.386;15.560;2022-07-23T15:24:40;2.40;;;2.10;;
10719;SDS011;5411;58.386;15.560;2022-07-23T15:27:08;3.50;;;2.17;;